Time;durP1;ratioP1;P1;durP2;ratioP2;P2;SDS_P1;SDS_P2;PMS_P1;PMS_P2;Temp;Humidity;BMP_temperature;BMP_pressure;BME280_temperature;BME280_humidity;BME280_pressure;Samples;Min_cycle;Max_cycle;Signal;HPM_P1;HPM_P2
2023/12/05 00:04:37;;;;;;;48.20;33.80;;;;;;;-7.06;100.00;99535.60;443437;1257;142828;-63
2023/12/05 00:14:44;;;;;;;52.20;37.30;;;;;;;-7.11;100.00;99534.04;432189;1255;140125;-63
2023/12/05 00:24:50;;;;;;;42.90;31.80;;;;;;;-7.17;100.00;99521.06;432532;1256;139918;-63
2023/12/05 00:34:57;;;;;;;42.50;30.00;;;;;;;-7.20;100.00;99503.52;432295;1255;140963;-63
2023/12/05 00:45:04;;;;;;;41.00;31.40;;;;;;;-7.18;100.00;99486.69;447007;1258;140560;-63
2023/12/05 00:55:11;;;;;;;35.20;26.40;;;;;;;-7.16;100.00;99478.36;446749;1255;140751;-63
2023/12/05 01:05:17;;;;;;;38.80;24.80;;;;;;;-7.18;100.00;99474.42;436195;1254;165731;-63
2023/12/05 01:15:24;;;;;;;35.90;26.00;;;;;;;-7.25;100.00;99477.11;432558;1258;141420;-63
2023/12/05 01:25:30;;;;;;;36.60;26.30;;;;;;;-7.39;100.00;99492.66;432652;1256;140116;-62
2023/12/05 01:35:37;;;;;;;40.10;28.80;;;;;;;-7.58;100.00;99485.89;432483;1255;140251;-63
2023/12/05 01:45:43;;;;;;;35.80;26.60;;;;;;;-7.75;100.00;99482.00;447504;1255;140409;-63
2023/12/05 01:55:50;;;;;;;37.40;27.30;;;;;;;-7.82;100.00;99457.30;445672;1253;140934;-63
2023/12/05 02:05:57;;;;;;;35.20;24.30;;;;;;;-7.84;100.00;99451.50;438955;1258;141648;-63
2023/12/05 02:16:17;;;;;;;34.60;23.70;;;;;;;-7.83;100.00;99444.88;438442;1255;140947;-62
2023/12/05 02:26:36;;;;;;;33.10;23.70;;;;;;;-7.80;100.00;99443.38;432958;1254;142574;-64
2023/12/05 02:36:50;;;;;;;38.30;26.40;;;;;;;-7.73;100.00;99438.84;440528;1257;139836;-63
2023/12/05 02:46:58;;;;;;;32.40;23.60;;;;;;;-7.64;100.00;99425.48;432441;1255;140777;-63
2023/12/05 02:57:05;;;;;;;31.90;23.00;;;;;;;-7.56;100.00;99417.04;437614;1258;140204;-63
2023/12/05 03:07:12;;;;;;;30.20;21.60;;;;;;;-7.50;100.00;99412.31;434182;1258;140290;-63
2023/12/05 03:17:18;;;;;;;29.60;20.90;;;;;;;-7.44;100.00;99413.89;435352;1258;141328;-63
2023/12/05 03:27:24;;;;;;;33.20;22.70;;;;;;;-7.40;100.00;99418.66;445802;1257;140972;-64
2023/12/05 03:37:30;;;;;;;28.80;22.30;;;;;;;-7.40;100.00;99418.50;432660;1254;140071;-63
2023/12/05 03:47:37;;;;;;;33.10;23.70;;;;;;;-7.46;100.00;99415.58;432936;1259;140160;-63
2023/12/05 03:57:43;;;;;;;31.20;23.50;;;;;;;-7.55;100.00;99416.54;445678;1254;139978;-64
2023/12/05 04:07:49;;;;;;;31.10;22.80;;;;;;;-7.61;100.00;99412.92;432403;1259;141317;-62
2023/12/05 04:17:55;;;;;;;32.40;24.60;;;;;;;-7.61;100.00;99409.69;432675;1260;139961;-63
2023/12/05 04:28:02;;;;;;;38.50;25.40;;;;;;;-7.62;100.00;99403.39;434195;1258;140268;-63
2023/12/05 04:38:09;;;;;;;32.80;25.10;;;;;;;-7.67;100.00;99403.19;439572;1257;140746;-63
2023/12/05 04:48:15;;;;;;;35.70;25.00;;;;;;;-7.76;100.00;99402.10;450909;1257;140516;-62
2023/12/05 04:58:21;;;;;;;35.70;26.60;;;;;;;-7.86;100.00;99399.31;436869;1255;140818;-64
2023/12/05 05:08:27;;;;;;;33.10;26.70;;;;;;;-7.98;100.00;99401.59;435952;1257;140522;-63
2023/12/05 05:18:34;;;;;;;40.80;27.00;;;;;;;-8.14;100.00;99402.14;433384;1255;141098;-63
2023/12/05 05:28:40;;;;;;;44.30;30.00;;;;;;;-8.26;100.00;99392.35;435804;1257;142011;-63
2023/12/05 05:38:46;;;;;;;40.80;29.40;;;;;;;-8.32;100.00;99386.70;445859;1254;140589;-63
2023/12/05 05:48:53;;;;;;;38.40;29.10;;;;;;;-8.41;100.00;99383.21;432706;1258;140539;-63
2023/12/05 05:58:59;;;;;;;41.70;30.60;;;;;;;-8.51;100.00;99384.83;432481;1257;141015;-63
2023/12/05 06:09:05;;;;;;;52.50;35.60;;;;;;;-8.62;100.00;99377.44;442149;1254;140712;-64
2023/12/05 06:19:12;;;;;;;46.70;33.80;;;;;;;-8.74;100.00;99372.90;432706;1255;140575;-63
2023/12/05 06:29:18;;;;;;;45.30;32.10;;;;;;;-8.86;100.00;99382.77;432925;1257;140587;-62
2023/12/05 06:39:25;;;;;;;47.30;32.60;;;;;;;-9.01;100.00;99389.73;443740;1254;141573;-63
2023/12/05 06:49:32;;;;;;;43.80;32.50;;;;;;;-9.01;100.00;99394.48;435285;1254;141263;-63
2023/12/05 06:59:40;;;;;;;47.80;33.60;;;;;;;-8.92;100.00;99384.24;449127;1254;142089;-63
2023/12/05 07:09:46;;;;;;;45.90;32.90;;;;;;;-8.71;100.00;99373.10;450802;1254;140183;-63
2023/12/05 07:19:52;;;;;;;45.40;32.60;;;;;;;-8.35;100.00;99366.30;438503;1257;140284;-63
2023/12/05 07:29:59;;;;;;;44.20;32.20;;;;;;;-7.73;100.00;99363.87;442272;1254;141615;-63
2023/12/05 07:40:06;;;;;;;49.30;30.70;;;;;;;-6.52;100.00;99364.01;432855;1257;140175;-64
2023/12/05 07:50:16;;;;;;;40.30;28.20;;;;;;;-4.20;100.00;99358.86;437020;1257;140692;-62
2023/12/05 08:00:22;;;;;;;36.60;26.70;;;;;;;-2.08;100.00;99350.27;434034;1257;139970;-62
2023/12/05 08:10:29;;;;;;;33.60;26.80;;;;;;;-0.31;100.00;99338.23;432746;1254;140382;-63
2023/12/05 08:20:35;;;;;;;34.20;28.00;;;;;;;1.38;98.97;99348.09;433327;1257;138955;-63
2023/12/05 08:30:44;;;;;;;37.20;29.10;;;;;;;2.32;95.62;99350.84;433062;1258;138610;-63
2023/12/05 08:40:50;;;;;;;28.50;24.60;;;;;;;3.04;93.20;99364.07;436775;1254;139752;-63
2023/12/05 08:50:56;;;;;;;31.60;26.50;;;;;;;4.19;91.91;99369.70;432971;1257;139092;-61
2023/12/05 09:01:02;;;;;;;33.80;29.80;;;;;;;5.24;88.36;99373.37;432782;1257;139106;-61
2023/12/05 09:11:09;;;;;;;31.50;27.30;;;;;;;5.33;84.91;99369.67;432775;1257;138590;-62
2023/12/05 09:21:15;;;;;;;31.90;26.80;;;;;;;5.11;81.98;99369.10;438383;1254;139390;-63
2023/12/05 09:31:22;;;;;;;37.40;27.80;;;;;;;3.66;80.21;99359.52;432791;1255;140067;-62
2023/12/05 09:41:29;;;;;;;30.70;22.90;;;;;;;0.44;80.45;99357.85;432716;1255;139708;-62
2023/12/05 09:51:37;;;;;;;33.20;23.60;;;;;;;-1.79;82.50;99358.90;432851;1257;138672;-62
2023/12/05 10:01:44;;;;;;;36.80;26.00;;;;;;;-3.17;84.86;99345.46;450997;1254;139950;-63
2023/12/05 10:11:52;;;;;;;35.60;25.30;;;;;;;-3.99;86.71;99342.36;439720;1254;139094;-62
2023/12/05 10:22:00;;;;;;;37.10;28.90;;;;;;;-4.50;88.28;99338.81;438275;1255;138977;-62
2023/12/05 10:32:07;;;;;;;38.40;28.80;;;;;;;-4.59;89.96;99330.84;432579;1255;140290;-63
2023/12/05 10:42:14;;;;;;;32.60;24.80;;;;;;;-4.77;90.42;99326.86;451048;1254;140376;-63
2023/12/05 10:52:22;;;;;;;34.70;27.00;;;;;;;-4.84;91.32;99324.16;448310;1255;141013;-63
2023/12/05 11:02:28;;;;;;;37.50;27.60;;;;;;;-4.87;92.15;99310.17;442098;1254;140683;-63
2023/12/05 11:12:37;;;;;;;39.00;29.70;;;;;;;-4.85;92.77;99297.02;449896;1254;140176;-63
2023/12/05 11:23:02;;;;;;;38.40;27.60;;;;;;;-4.96;93.17;99294.17;433551;1257;139789;-62
2023/12/05 11:33:19;;;;;;;38.40;25.70;;;;;;;-4.98;93.94;99288.54;450895;1254;141575;-63
2023/12/05 11:43:25;;;;;;;37.10;26.20;;;;;;;-4.89;94.40;99279.95;449521;1254;139767;-63
2023/12/05 11:53:32;;;;;;;32.80;24.90;;;;;;;-4.65;95.04;99271.43;440989;1255;139420;-64
2023/12/05 12:03:50;;;;;;;34.10;24.30;;;;;;;-4.54;95.12;99277.00;436161;1254;140906;-63
2023/12/05 12:13:56;;;;;;;37.10;24.60;;;;;;;-4.59;95.26;99274.81;449923;1254;140483;-63
2023/12/05 12:24:04;;;;;;;33.50;23.70;;;;;;;-4.70;95.48;99276.59;432838;1257;139182;-62
2023/12/05 12:34:21;;;;;;;34.40;25.30;;;;;;;-4.78;95.87;99278.69;432576;1254;139288;-63
2023/12/05 12:44:28;;;;;;;35.10;26.70;;;;;;;-4.86;96.19;99275.66;432717;1254;140021;-62
2023/12/05 12:54:37;;;;;;;42.10;29.20;;;;;;;-4.95;96.55;99269.05;439232;1254;139267;-63
2023/12/05 13:04:44;;;;;;;39.10;27.70;;;;;;;-5.01;96.87;99261.25;450610;1254;144453;-64
2023/12/05 13:14:52;;;;;;;36.50;27.70;;;;;;;-4.97;97.41;99255.42;435338;1255;140584;-63
2023/12/05 13:24:58;;;;;;;34.50;24.50;;;;;;;-4.86;97.76;99253.30;436174;1255;140285;-63
2023/12/05 13:35:05;;;;;;;39.30;29.70;;;;;;;-4.85;97.91;99255.85;432614;1257;139373;-63
2023/12/05 13:45:12;;;;;;;48.10;33.50;;;;;;;-4.90;98.08;99265.80;448618;1255;139768;-62
2023/12/05 13:55:18;;;;;;;45.60;34.30;;;;;;;-5.03;98.10;99264.50;439778;1254;139722;-63
2023/12/05 14:05:24;;;;;;;49.30;36.20;;;;;;;-5.16;98.32;99268.50;433190;1256;139810;-62
2023/12/05 14:15:31;;;;;;;45.60;33.50;;;;;;;-5.24;98.57;99274.86;433348;1254;139918;-63
2023/12/05 14:25:38;;;;;;;50.00;37.40;;;;;;;-5.34;98.77;99281.73;435119;1254;140034;-62
2023/12/05 14:35:44;;;;;;;49.40;36.20;;;;;;;-5.47;99.00;99290.64;451260;1254;140434;-63
2023/12/05 14:45:50;;;;;;;48.20;35.40;;;;;;;-5.62;99.24;99306.55;440060;1254;140133;-63
2023/12/05 14:55:56;;;;;;;45.30;32.40;;;;;;;-5.80;99.41;99299.77;445812;1254;140064;-63
2023/12/05 15:06:03;;;;;;;44.90;31.00;;;;;;;-5.94;99.91;99296.89;451182;1254;139483;-63
2023/12/05 15:16:10;;;;;;;41.50;31.80;;;;;;;-5.99;100.00;99297.75;435594;1254;140919;-63
2023/12/05 15:26:18;;;;;;;38.20;29.90;;;;;;;-5.98;100.00;99305.94;434305;1254;140450;-63
2023/12/05 15:36:26;;;;;;;43.60;31.20;;;;;;;-5.92;100.00;99305.08;436753;1254;139809;-64
2023/12/05 15:46:32;;;;;;;41.30;32.10;;;;;;;-5.85;100.00;99306.42;432755;1256;139831;-63
2023/12/05 15:56:40;;;;;;;41.60;32.00;;;;;;;-5.83;100.00;99312.22;432657;1254;139810;-64
2023/12/05 16:06:46;;;;;;;41.00;30.60;;;;;;;-5.85;100.00;99315.80;433158;1254;139924;-63
2023/12/05 16:16:53;;;;;;;45.90;35.60;;;;;;;-5.91;100.00;99313.94;443315;1254;139743;-63
2023/12/05 16:26:59;;;;;;;49.90;34.00;;;;;;;-6.00;100.00;99312.77;442963;1254;139726;-63
2023/12/05 16:37:06;;;;;;;45.10;30.70;;;;;;;-6.11;100.00;99317.39;433115;1255;139821;-64
2023/12/05 16:47:12;;;;;;;45.80;33.70;;;;;;;-6.21;100.00;99314.85;439820;1254;139562;-63
2023/12/05 16:57:19;;;;;;;40.10;29.20;;;;;;;-6.25;100.00;99315.70;432859;1257;141725;-63
2023/12/05 17:07:27;;;;;;;46.40;30.90;;;;;;;-6.31;100.00;99317.56;432990;1257;141143;-63
2023/12/05 17:17:34;;;;;;;47.50;33.40;;;;;;;-6.41;100.00;99318.25;435243;1254;139642;-64
2023/12/05 17:27:40;;;;;;;52.80;36.10;;;;;;;-6.49;100.00;99323.18;433733;1255;140864;-63
2023/12/05 17:37:46;;;;;;;50.00;34.30;;;;;;;-6.51;100.00;99318.23;432738;1254;140042;-64
2023/12/05 17:47:53;;;;;;;52.10;36.40;;;;;;;-6.56;100.00;99318.23;432791;1257;139596;-63
2023/12/05 17:57:59;;;;;;;48.00;36.00;;;;;;;-6.56;100.00;99316.88;435649;1256;140274;-63
2023/12/05 18:08:06;;;;;;;44.20;33.20;;;;;;;-6.53;100.00;99314.66;432619;1256;139482;-63
2023/12/05 18:18:14;;;;;;;56.60;40.80;;;;;;;-6.45;100.00;99317.73;432779;1255;139701;-62
2023/12/05 18:28:21;;;;;;;50.90;34.20;;;;;;;-6.41;100.00;99320.96;432980;1255;141001;-62
2023/12/05 18:38:28;;;;;;;49.60;37.00;;;;;;;-6.40;100.00;99321.14;437387;1255;139780;-63
2023/12/05 18:48:35;;;;;;;51.40;35.40;;;;;;;-6.43;100.00;99315.69;440351;1256;140007;-63
2023/12/05 18:58:41;;;;;;;52.00;38.90;;;;;;;-6.46;100.00;99316.20;433641;1257;140083;-63
2023/12/05 19:08:48;;;;;;;51.90;36.60;;;;;;;-6.44;100.00;99325.90;433176;1256;141477;-63
2023/12/05 19:18:54;;;;;;;52.20;37.40;;;;;;;-6.44;100.00;99332.21;433622;1255;141957;-62
2023/12/05 19:29:01;;;;;;;50.30;36.80;;;;;;;-6.47;100.00;99335.61;436503;1257;140293;-63
2023/12/05 19:39:07;;;;;;;57.40;40.70;;;;;;;-6.55;100.00;99345.30;433100;1255;141650;-63
2023/12/05 19:49:14;;;;;;;60.20;44.20;;;;;;;-6.58;100.00;99352.46;432873;1255;139526;-63
2023/12/05 19:59:20;;;;;;;56.70;41.90;;;;;;;-6.55;100.00;99351.44;448036;1256;140225;-63
2023/12/05 20:09:27;;;;;;;54.00;38.90;;;;;;;-6.47;100.00;99341.58;432759;1255;140485;-63
2023/12/05 20:19:33;;;;;;;53.40;40.20;;;;;;;-6.37;100.00;99342.27;432871;1257;139730;-68
2023/12/05 20:29:40;;;;;;;59.60;42.20;;;;;;;-6.29;100.00;99347.21;433148;1257;139460;-67
2023/12/05 20:39:46;;;;;;;58.90;41.90;;;;;;;-6.25;100.00;99344.32;433047;1256;140170;-69
2023/12/05 20:49:53;;;;;;;56.00;39.70;;;;;;;-6.28;100.00;99342.62;434111;1257;139639;-75
2023/12/05 20:59:59;;;;;;;51.70;38.20;;;;;;;-6.30;100.00;99340.91;442707;1254;139124;-75
2023/12/05 21:10:06;;;;;;;56.40;42.60;;;;;;;-6.38;100.00;99340.56;439862;1257;139507;-75
2023/12/05 21:20:13;;;;;;;60.60;41.50;;;;;;;-6.43;100.00;99339.88;439400;1257;140203;-76
2023/12/05 21:30:19;;;;;;;56.50;40.30;;;;;;;-6.41;100.00;99344.31;439388;1257;139687;-75
2023/12/05 21:40:25;;;;;;;60.30;41.30;;;;;;;-6.41;100.00;99348.23;439338;1254;141097;-75
2023/12/05 21:50:32;;;;;;;53.70;39.10;;;;;;;-6.41;100.00;99349.92;439400;1256;140441;-74
2023/12/05 22:00:38;;;;;;;69.30;48.00;;;;;;;-6.41;100.00;99350.09;439596;1256;139863;-75
2023/12/05 22:10:44;;;;;;;62.20;43.10;;;;;;;-6.40;100.00;99354.02;439201;1257;140803;-75
2023/12/05 22:20:50;;;;;;;56.40;39.40;;;;;;;-6.43;100.00;99358.95;439329;1254;140879;-74
2023/12/05 22:30:56;;;;;;;60.70;42.90;;;;;;;-6.47;100.00;99364.40;439523;1257;141396;-74
2023/12/05 22:41:07;;;;;;;60.80;43.30;;;;;;;-6.45;100.00;99370.03;439797;1257;140145;-75
2023/12/05 22:51:14;;;;;;;60.00;44.20;;;;;;;-6.41;100.00;99371.57;439286;1257;139904;-75
2023/12/05 23:01:20;;;;;;;69.20;48.90;;;;;;;-6.39;100.00;99369.52;439513;1257;139948;-75
2023/12/05 23:11:26;;;;;;;62.00;44.00;;;;;;;-6.50;100.00;99358.61;439339;1258;141463;-75
2023/12/05 23:21:32;;;;;;;66.70;44.80;;;;;;;-6.75;100.00;99354.80;439504;1254;139676;-75
2023/12/05 23:31:38;;;;;;;61.60;46.00;;;;;;;-7.02;100.00;99353.19;439554;1257;140503;-75
2023/12/05 23:41:44;;;;;;;67.00;46.50;;;;;;;-7.27;100.00;99338.97;439380;1254;139412;-76
2023/12/05 23:51:51;;;;;;;61.50;46.30;;;;;;;-7.48;100.00;99339.55;439098;1254;139852;-76
